Time;durP1;ratioP1;P1;durP2;ratioP2;P2;SDS_P1;SDS_P2;PMS_P1;PMS_P2;Temp;Humidity;BMP_temperature;BMP_pressure;BME280_temperature;BME280_humidity;BME280_pressure;Samples;Min_cycle;Max_cycle;Signal;HPM_P1;HPM_P2
2024/03/21 00:01:03;;;;;;;8.77;4.38;;;;;;;;;;5068867;28;20040;-72
2024/03/21 00:03:32;;;;;;;6.13;3.97;;;;;;;;;;5070445;28;20029;-72
2024/03/21 00:05:59;;;;;;;7.43;4.05;;;;;;;;;;5055208;28;20052;-72
2024/03/21 00:08:25;;;;;;;6.95;4.00;;;;;;;;;;5064838;28;20115;-73
2024/03/21 00:10:51;;;;;;;8.35;3.80;;;;;;;;;;5062042;28;20480;-72
2024/03/21 00:13:17;;;;;;;4.90;3.83;;;;;;;;;;5062357;28;20029;-73
2024/03/21 00:15:43;;;;;;;6.88;4.10;;;;;;;;;;5063522;28;20028;-74
2024/03/21 00:18:14;;;;;;;6.45;4.05;;;;;;;;;;5061039;28;20028;-73
2024/03/21 00:20:40;;;;;;;;;;;;;;;;;;5060546;28;20016;-73
2024/03/21 00:23:06;;;;;;;5.93;4.40;;;;;;;;;;5063629;28;19911;-73
2024/03/21 00:25:32;;;;;;;7.57;4.55;;;;;;;;;;5052125;28;20032;-72
2024/03/21 00:27:58;;;;;;;7.85;4.22;;;;;;;;;;5062679;28;20422;-73
2024/03/21 00:30:25;;;;;;;6.63;4.53;;;;;;;;;;5058105;28;20055;-72
2024/03/21 00:32:51;;;;;;;8.65;4.50;;;;;;;;;;5025468;28;20047;-72
2024/03/21 00:35:17;;;;;;;5.22;4.13;;;;;;;;;;5053453;28;20064;-72
2024/03/21 00:37:44;;;;;;;6.28;4.28;;;;;;;;;;5065422;28;20166;-72
2024/03/21 00:40:10;;;;;;;6.40;4.40;;;;;;;;;;5061799;28;20491;-72
2024/03/21 00:42:43;;;;;;;8.05;4.63;;;;;;;;;;5050030;28;20028;-72
2024/03/21 00:45:09;;;;;;;7.50;4.20;;;;;;;;;;5064113;28;20438;-72
2024/03/21 00:47:35;;;;;;;9.60;5.35;;;;;;;;;;5061039;28;20021;-71
2024/03/21 00:50:01;;;;;;;6.82;4.65;;;;;;;;;;5051185;28;20035;-71
2024/03/21 00:52:28;;;;;;;9.38;4.63;;;;;;;;;;5069992;28;20020;-72
2024/03/21 00:54:54;;;;;;;6.75;4.40;;;;;;;;;;5035010;28;20039;-72
2024/03/21 00:57:21;;;;;;;7.03;4.25;;;;;;;;;;5062392;28;20074;-73
2024/03/21 00:59:49;;;;;;;7.78;4.22;;;;;;;;;;5052477;28;20023;-72
2024/03/21 01:02:15;;;;;;;8.48;5.03;;;;;;;;;;5065576;28;20063;-72
2024/03/21 01:04:50;;;;;;;6.90;4.85;;;;;;;;;;5052263;28;20904;-72
2024/03/21 01:07:18;;;;;;;9.88;4.93;;;;;;;;;;5056511;28;20111;-72
2024/03/21 01:09:45;;;;;;;7.50;4.80;;;;;;;;;;5051905;28;20074;-73
2024/03/21 01:12:11;;;;;;;8.70;4.38;;;;;;;;;;5046135;28;20029;-73
2024/03/21 01:14:37;;;;;;;6.43;4.15;;;;;;;;;;5044554;28;20033;-73
2024/03/21 01:17:03;;;;;;;7.00;4.68;;;;;;;;;;5050793;28;20035;-73
2024/03/21 01:19:30;;;;;;;5.53;4.18;;;;;;;;;;5044923;28;20028;-73
2024/03/21 01:21:56;;;;;;;5.18;4.05;;;;;;;;;;5056339;28;20025;-73
2024/03/21 01:24:22;;;;;;;7.68;4.15;;;;;;;;;;5051701;28;20523;-73
2024/03/21 01:26:48;;;;;;;6.30;3.83;;;;;;;;;;5068361;28;20532;-72
2024/03/21 01:29:15;;;;;;;7.28;4.90;;;;;;;;;;5056030;28;20025;-72
2024/03/21 01:31:41;;;;;;;6.07;4.15;;;;;;;;;;5062823;28;20039;-73
2024/03/21 01:34:07;;;;;;;8.82;5.05;;;;;;;;;;5050188;28;20044;-73
2024/03/21 01:36:34;;;;;;;8.35;4.70;;;;;;;;;;5066259;28;20495;-72
2024/03/21 01:39:01;;;;;;;6.88;4.28;;;;;;;;;;5065093;28;20021;-72
2024/03/21 01:41:27;;;;;;;6.75;4.22;;;;;;;;;;5065071;28;20025;-73
2024/03/21 01:43:55;;;;;;;9.20;4.60;;;;;;;;;;5058873;28;20028;-73
2024/03/21 01:46:22;;;;;;;8.82;4.10;;;;;;;;;;5066055;28;20020;-73
2024/03/21 01:48:49;;;;;;;7.60;4.30;;;;;;;;;;5061045;28;20052;-73
2024/03/21 01:51:17;;;;;;;5.95;3.92;;;;;;;;;;5067611;28;20021;-73
2024/03/21 01:53:50;;;;;;;6.65;4.35;;;;;;;;;;5064671;28;20421;-73
2024/03/21 01:56:16;;;;;;;8.15;4.20;;;;;;;;;;5071192;28;20126;-73
2024/03/21 01:58:42;;;;;;;5.05;3.88;;;;;;;;;;5064945;28;20156;-73
2024/03/21 02:01:16;;;;;;;12.05;4.28;;;;;;;;;;5065374;28;20027;-72
2024/03/21 02:03:43;;;;;;;5.75;3.67;;;;;;;;;;5064121;28;20029;-73
2024/03/21 02:06:09;;;;;;;7.13;3.40;;;;;;;;;;5056423;28;20162;-73
2024/03/21 02:08:36;;;;;;;4.78;3.83;;;;;;;;;;5039593;28;20119;-73
2024/03/21 02:11:02;;;;;;;6.72;4.30;;;;;;;;;;5032484;28;20041;-72
2024/03/21 02:13:28;;;;;;;4.45;3.75;;;;;;;;;;5060386;28;20025;-72
2024/03/21 02:15:54;;;;;;;5.40;4.18;;;;;;;;;;5050124;28;20458;-73
2024/03/21 02:18:22;;;;;;;8.88;4.20;;;;;;;;;;5072659;28;20016;-73
2024/03/21 02:20:48;;;;;;;9.60;4.55;;;;;;;;;;5071718;28;20017;-73
2024/03/21 02:23:14;;;;;;;7.53;4.40;;;;;;;;;;5039529;28;20068;-73
2024/03/21 02:25:40;;;;;;;7.22;4.43;;;;;;;;;;5040484;28;20501;-73
2024/03/21 02:28:08;;;;;;;4.82;3.75;;;;;;;;;;5033598;28;20033;-72
2024/03/21 02:30:34;;;;;;;5.72;3.53;;;;;;;;;;5065200;28;20045;-73
2024/03/21 02:33:00;;;;;;;6.78;3.90;;;;;;;;;;5055558;28;20043;-73
2024/03/21 02:35:26;;;;;;;9.18;4.38;;;;;;;;;;5038625;28;20456;-72
2024/03/21 02:37:52;;;;;;;7.07;4.28;;;;;;;;;;5066515;28;20019;-72
2024/03/21 02:40:18;;;;;;;4.35;3.50;;;;;;;;;;5058407;28;20484;-73
2024/03/21 02:42:44;;;;;;;8.15;3.88;;;;;;;;;;5054020;28;20075;-72
2024/03/21 02:45:10;;;;;;;5.85;3.90;;;;;;;;;;5065770;28;20033;-73
2024/03/21 02:47:36;;;;;;;6.68;4.22;;;;;;;;;;5063466;28;20020;-72
2024/03/21 02:50:04;;;;;;;9.70;4.20;;;;;;;;;;5056136;28;20134;-73
2024/03/21 02:52:30;;;;;;;4.45;4.00;;;;;;;;;;5062237;28;20020;-72
2024/03/21 02:54:56;;;;;;;10.60;4.57;;;;;;;;;;5067242;28;20024;-73
2024/03/21 02:57:22;;;;;;;8.95;4.15;;;;;;;;;;5061454;28;20033;-73
2024/03/21 02:59:48;;;;;;;7.57;4.65;;;;;;;;;;5058665;28;20437;-73
2024/03/21 03:02:16;;;;;;;6.00;4.55;;;;;;;;;;5066515;28;20059;-73
2024/03/21 03:04:42;;;;;;;8.77;4.90;;;;;;;;;;5064399;28;20025;-73
2024/03/21 03:07:08;;;;;;;11.23;5.35;;;;;;;;;;5054889;28;20036;-73
2024/03/21 03:09:34;;;;;;;9.35;4.47;;;;;;;;;;5052581;28;20020;-73
2024/03/21 03:12:00;;;;;;;7.47;4.43;;;;;;;;;;5064821;28;20039;-73
2024/03/21 03:14:26;;;;;;;5.50;4.10;;;;;;;;;;5058575;28;20504;-73
2024/03/21 03:16:52;;;;;;;6.25;3.95;;;;;;;;;;5051503;28;20025;-72
2024/03/21 03:19:18;;;;;;;6.68;4.20;;;;;;;;;;5062331;28;20482;-74
2024/03/21 03:21:44;;;;;;;9.57;4.38;;;;;;;;;;5050942;28;20367;-73
2024/03/21 03:24:10;;;;;;;7.68;4.90;;;;;;;;;;5065097;28;20439;-72
2024/03/21 03:26:36;;;;;;;11.32;6.28;;;;;;;;;;5063968;28;20059;-72
2024/03/21 03:29:04;;;;;;;7.45;4.97;;;;;;;;;;5066262;28;20032;-72
2024/03/21 03:31:30;;;;;;;11.48;6.00;;;;;;;;;;5057498;28;20056;-73
2024/03/21 03:36:41;;;;;;;7.57;4.80;;;;;;;;;;5051212;28;20502;-73
2024/03/21 03:39:07;;;;;;;5.18;4.13;;;;;;;;;;5050234;28;20060;-73
2024/03/21 03:41:33;;;;;;;6.32;4.63;;;;;;;;;;5048769;28;20381;-73
2024/03/21 03:44:00;;;;;;;7.53;4.35;;;;;;;;;;5038979;28;20512;-73
2024/03/21 03:46:26;;;;;;;9.57;5.55;;;;;;;;;;5050289;28;20028;-73
2024/03/21 03:48:54;;;;;;;8.98;4.82;;;;;;;;;;5050921;28;20411;-73
2024/03/21 03:51:20;;;;;;;8.65;5.05;;;;;;;;;;5049921;28;20033;-73
2024/03/21 03:53:46;;;;;;;9.40;4.78;;;;;;;;;;5051088;28;20389;-73
2024/03/21 03:56:12;;;;;;;7.18;4.70;;;;;;;;;;5049630;28;20021;-73
2024/03/21 03:58:38;;;;;;;6.60;4.15;;;;;;;;;;5049913;28;20112;-73
2024/03/21 04:01:04;;;;;;;6.93;4.32;;;;;;;;;;5048666;28;20720;-73
2024/03/21 04:03:30;;;;;;;5.78;4.47;;;;;;;;;;5060265;28;20032;-73
2024/03/21 04:06:00;;;;;;;6.50;4.57;;;;;;;;;;5047390;28;20425;-73
2024/03/21 04:08:27;;;;;;;4.80;3.55;;;;;;;;;;5040360;28;20032;-73
2024/03/21 04:10:55;;;;;;;5.78;4.28;;;;;;;;;;5040628;28;20124;-73
2024/03/21 04:13:21;;;;;;;6.88;4.50;;;;;;;;;;5046968;28;20036;-73
2024/03/21 04:15:51;;;;;;;6.25;4.43;;;;;;;;;;5032032;28;20435;-73
2024/03/21 04:18:18;;;;;;;8.07;4.72;;;;;;;;;;5049752;28;20057;-73
2024/03/21 04:20:44;;;;;;;7.28;4.32;;;;;;;;;;5050222;28;20552;-73
2024/03/21 04:23:10;;;;;;;6.82;4.70;;;;;;;;;;5049627;28;20033;-72
2024/03/21 04:25:36;;;;;;;6.18;4.13;;;;;;;;;;5049988;28;20456;-72
2024/03/21 04:28:02;;;;;;;5.95;4.50;;;;;;;;;;5049625;28;20048;-72
2024/03/21 04:30:28;;;;;;;6.68;4.30;;;;;;;;;;5057686;28;20085;-72
2024/03/21 04:32:55;;;;;;;6.65;4.72;;;;;;;;;;5037906;28;20513;-72
2024/03/21 04:35:21;;;;;;;5.50;3.53;;;;;;;;;;5029000;28;20022;-72
2024/03/21 04:37:49;;;;;;;6.53;4.30;;;;;;;;;;5059081;28;20017;-72
2024/03/21 04:40:15;;;;;;;7.47;4.82;;;;;;;;;;5049225;28;20492;-72
2024/03/21 04:42:41;;;;;;;5.55;4.13;;;;;;;;;;5023437;28;20030;-72
2024/03/21 04:45:08;;;;;;;8.55;3.65;;;;;;;;;;5043850;28;20029;-72
2024/03/21 04:47:34;;;;;;;7.97;4.03;;;;;;;;;;5051285;28;20480;-72
2024/03/21 04:50:01;;;;;;;5.03;3.17;;;;;;;;;;5048325;28;20036;-72
2024/03/21 04:52:28;;;;;;;7.20;4.63;;;;;;;;;;5031870;28;20048;-72
2024/03/21 04:54:56;;;;;;;7.18;4.10;;;;;;;;;;5050168;28;20047;-73
2024/03/21 04:57:23;;;;;;;5.35;3.70;;;;;;;;;;5049679;28;20063;-73
2024/03/21 04:59:49;;;;;;;5.05;3.38;;;;;;;;;;5049981;28;20023;-72
2024/03/21 05:02:15;;;;;;;5.57;3.50;;;;;;;;;;5045692;28;20025;-72
2024/03/21 05:04:41;;;;;;;5.72;3.38;;;;;;;;;;5054425;28;20029;-72
2024/03/21 05:07:07;;;;;;;5.68;3.47;;;;;;;;;;5032055;28;20340;-72
2024/03/21 05:09:33;;;;;;;6.72;4.20;;;;;;;;;;5046739;28;20510;-72
2024/03/21 05:11:59;;;;;;;12.85;7.65;;;;;;;;;;5048306;28;20017;-72
2024/03/21 05:14:25;;;;;;;17.02;9.77;;;;;;;;;;5049205;28;20029;-72
2024/03/21 05:16:51;;;;;;;18.42;9.85;;;;;;;;;;5052740;28;20039;-72
2024/03/21 05:19:18;;;;;;;17.40;9.95;;;;;;;;;;5043191;28;20372;-72
2024/03/21 05:21:44;;;;;;;16.58;9.48;;;;;;;;;;5030429;28;20017;-72
2024/03/21 05:24:12;;;;;;;14.13;8.07;;;;;;;;;;5048437;28;20431;-73
2024/03/21 05:26:38;;;;;;;13.52;7.43;;;;;;;;;;5049726;28;20415;-73
2024/03/21 05:29:06;;;;;;;9.65;6.28;;;;;;;;;;5053785;28;20151;-73
2024/03/21 05:31:32;;;;;;;8.85;5.25;;;;;;;;;;5067284;28;20097;-73
2024/03/21 05:34:00;;;;;;;10.15;6.07;;;;;;;;;;5070918;28;20461;-73
2024/03/21 05:36:26;;;;;;;10.13;6.85;;;;;;;;;;5072074;28;20017;-72
2024/03/21 05:38:52;;;;;;;11.90;6.50;;;;;;;;;;5068667;28;20033;-72
2024/03/21 05:41:19;;;;;;;12.05;7.35;;;;;;;;;;5054743;28;20456;-72
2024/03/21 05:43:45;;;;;;;13.25;7.05;;;;;;;;;;5063930;28;20025;-73
2024/03/21 05:46:11;;;;;;;13.40;6.20;;;;;;;;;;5081354;28;20031;-72
2024/03/21 05:48:37;;;;;;;9.48;5.65;;;;;;;;;;5072724;28;20031;-72
2024/03/21 05:51:04;;;;;;;9.02;5.85;;;;;;;;;;5066244;28;20068;-72
2024/03/21 05:53:30;;;;;;;9.05;4.80;;;;;;;;;;5063513;28;20445;-72
2024/03/21 05:55:57;;;;;;;7.72;4.82;;;;;;;;;;5070897;28;20104;-74
2024/03/21 05:58:23;;;;;;;7.72;4.60;;;;;;;;;;5055255;28;20024;-73
2024/03/21 06:03:35;;;;;;;8.32;4.43;;;;;;;;;;5071284;28;20059;-72
2024/03/21 06:06:01;;;;;;;7.53;4.50;;;;;;;;;;5069522;28;20024;-72
2024/03/21 06:08:27;;;;;;;5.80;4.00;;;;;;;;;;5061606;28;20094;-72
2024/03/21 06:10:53;;;;;;;6.50;4.07;;;;;;;;;;5067739;28;20047;-72
2024/03/21 06:13:20;;;;;;;7.35;4.72;;;;;;;;;;5066601;28;20025;-72
2024/03/21 06:15:46;;;;;;;11.27;5.28;;;;;;;;;;5048571;28;20047;-73
2024/03/21 06:18:12;;;;;;;6.90;4.38;;;;;;;;;;5034129;28;20028;-73
2024/03/21 06:20:39;;;;;;;6.07;4.20;;;;;;;;;;5043773;28;20547;-73
2024/03/21 06:23:06;;;;;;;10.95;6.55;;;;;;;;;;5067051;28;20764;-74
2024/03/21 06:25:33;;;;;;;8.73;6.25;;;;;;;;;;5046235;28;20086;-73
2024/03/21 06:28:01;;;;;;;23.92;12.15;;;;;;;;;;5025501;28;20028;-73
2024/03/21 06:30:27;;;;;;;15.75;9.13;;;;;;;;;;5061273;28;21353;-78
2024/03/21 06:32:53;;;;;;;13.50;7.45;;;;;;;;;;5065707;28;20036;-78
2024/03/21 06:35:20;;;;;;;12.45;7.00;;;;;;;;;;5043287;28;20016;-79
2024/03/21 06:37:50;;;;;;;10.77;5.90;;;;;;;;;;5065527;28;20024;-72
2024/03/21 06:40:17;;;;;;;11.57;5.70;;;;;;;;;;5066134;28;20017;-72
2024/03/21 06:42:44;;;;;;;6.85;5.30;;;;;;;;;;5071108;28;20056;-73
2024/03/21 06:45:11;;;;;;;8.30;5.65;;;;;;;;;;5071302;28;20024;-74
2024/03/21 06:47:40;;;;;;;10.43;6.13;;;;;;;;;;5060203;28;20040;-73
2024/03/21 06:50:07;;;;;;;13.00;6.32;;;;;;;;;;5065077;28;20028;-73
2024/03/21 06:52:35;;;;;;;12.73;6.88;;;;;;;;;;5067130;28;20077;-73
2024/03/21 06:55:01;;;;;;;9.23;6.13;;;;;;;;;;5068667;28;20028;-73
2024/03/21 06:57:28;;;;;;;11.25;6.32;;;;;;;;;;5067032;28;20062;-74
2024/03/21 06:59:54;;;;;;;10.10;6.15;;;;;;;;;;5066348;28;20024;-73
2024/03/21 07:02:20;;;;;;;10.18;6.28;;;;;;;;;;5053707;28;20029;-73
2024/03/21 07:04:46;;;;;;;12.15;7.00;;;;;;;;;;5061309;28;20056;-73
2024/03/21 07:07:13;;;;;;;13.20;6.25;;;;;;;;;;5071120;28;20063;-73
2024/03/21 07:09:39;;;;;;;8.05;5.80;;;;;;;;;;5066245;28;20021;-73
2024/03/21 07:12:05;;;;;;;19.10;5.70;;;;;;;;;;5061596;28;20036;-73
2024/03/21 07:14:33;;;;;;;8.18;5.30;;;;;;;;;;5071939;28;20162;-72
2024/03/21 07:17:03;;;;;;;8.15;5.53;;;;;;;;;;5062809;28;20507;-73
2024/03/21 07:19:35;;;;;;;;;;;;;;;;;;5055039;28;20400;-73
2024/03/21 07:22:06;;;;;;;8.63;5.25;;;;;;;;;;5044417;28;19915;-72
2024/03/21 07:24:33;;;;;;;10.15;5.18;;;;;;;;;;5028426;28;20120;-72
2024/03/21 07:27:01;;;;;;;11.98;5.63;;;;;;;;;;5063596;28;20115;-72
2024/03/21 07:29:29;;;;;;;14.23;6.32;;;;;;;;;;5061873;28;20392;-72
2024/03/21 07:31:57;;;;;;;10.00;5.18;;;;;;;;;;5071856;28;20043;-72
2024/03/21 07:34:23;;;;;;;12.30;5.70;;;;;;;;;;5061193;28;20037;-72
2024/03/21 07:36:50;;;;;;;10.73;5.50;;;;;;;;;;5053452;28;20552;-72
2024/03/21 07:39:19;;;;;;;10.55;5.60;;;;;;;;;;5073878;28;20507;-72
2024/03/21 07:41:45;;;;;;;13.15;5.43;;;;;;;;;;5066998;28;20070;-72
2024/03/21 07:44:11;;;;;;;11.15;6.45;;;;;;;;;;5065023;28;20555;-72
2024/03/21 07:46:38;;;;;;;10.23;6.03;;;;;;;;;;5064135;28;20081;-72
2024/03/21 07:49:07;;;;;;;9.88;5.82;;;;;;;;;;5081884;28;20035;-72
2024/03/21 07:51:33;;;;;;;11.75;6.68;;;;;;;;;;5069683;28;20392;-72
2024/03/21 07:53:59;;;;;;;13.77;5.85;;;;;;;;;;5055875;28;20025;-73
2024/03/21 07:56:25;;;;;;;9.27;5.35;;;;;;;;;;5067301;28;20020;-72
2024/03/21 07:58:52;;;;;;;22.80;5.95;;;;;;;;;;5074354;28;20480;-71
2024/03/21 08:01:18;;;;;;;12.75;5.90;;;;;;;;;;5066168;28;20027;-71
2024/03/21 08:03:45;;;;;;;14.75;6.35;;;;;;;;;;5070458;28;20027;-73
2024/03/21 08:06:11;;;;;;;10.65;5.53;;;;;;;;;;5076779;28;20040;-72
2024/03/21 08:08:37;;;;;;;10.77;6.10;;;;;;;;;;5079406;28;20032;-72
2024/03/21 08:11:03;;;;;;;12.02;6.22;;;;;;;;;;5065900;28;20036;-72
2024/03/21 08:13:30;;;;;;;8.77;6.00;;;;;;;;;;5078276;28;20024;-72
2024/03/21 08:15:56;;;;;;;13.68;6.00;;;;;;;;;;5082507;28;20162;-71
2024/03/21 08:18:25;;;;;;;13.05;5.50;;;;;;;;;;5070166;28;20473;-72
2024/03/21 08:20:57;;;;;;;12.05;5.72;;;;;;;;;;5075304;28;20480;-73
2024/03/21 08:23:27;;;;;;;8.10;5.55;;;;;;;;;;5061444;28;20074;-73
2024/03/21 08:25:54;;;;;;;;;;;;;;;;;;5057570;28;20025;-71
2024/03/21 08:28:20;;;;;;;9.43;5.20;;;;;;;;;;5052659;28;20011;-72
2024/03/21 08:30:46;;;;;;;8.68;4.88;;;;;;;;;;5056661;28;20232;-72
2024/03/21 08:33:16;;;;;;;9.57;4.65;;;;;;;;;;5066623;28;20041;-72
2024/03/21 08:35:45;;;;;;;9.95;5.38;;;;;;;;;;5070495;28;20023;-72
2024/03/21 08:38:11;;;;;;;9.10;4.63;;;;;;;;;;5073787;28;20024;-72
2024/03/21 08:40:38;;;;;;;9.15;4.40;;;;;;;;;;5052105;28;20059;-72
2024/03/21 08:43:04;;;;;;;8.88;5.13;;;;;;;;;;5074567;28;20020;-72
2024/03/21 08:45:31;;;;;;;8.32;5.10;;;;;;;;;;5074291;28;20531;-72
2024/03/21 08:48:00;;;;;;;8.05;3.92;;;;;;;;;;5072704;28;20383;-74
2024/03/21 08:50:27;;;;;;;8.85;4.00;;;;;;;;;;5061169;28;20479;-74
2024/03/21 08:52:53;;;;;;;7.18;4.88;;;;;;;;;;5048559;28;20502;-74
2024/03/21 08:55:20;;;;;;;7.07;4.20;;;;;;;;;;5036835;28;20041;-73
2024/03/21 08:57:48;;;;;;;7.55;4.82;;;;;;;;;;5052326;28;20017;-74
2024/03/21 09:00:15;;;;;;;10.35;5.70;;;;;;;;;;5065773;28;20366;-73
2024/03/21 09:02:41;;;;;;;9.95;6.55;;;;;;;;;;5051927;28;20592;-73
2024/03/21 09:05:10;;;;;;;11.27;5.95;;;;;;;;;;5056844;28;20029;-73
2024/03/21 09:07:37;;;;;;;13.20;5.82;;;;;;;;;;5053631;28;20452;-73
2024/03/21 09:10:04;;;;;;;10.70;6.20;;;;;;;;;;5047653;28;20437;-73
2024/03/21 09:12:31;;;;;;;10.95;5.65;;;;;;;;;;5063019;28;20100;-73
2024/03/21 09:14:57;;;;;;;10.48;7.00;;;;;;;;;;5056220;28;20496;-74
2024/03/21 09:17:25;;;;;;;11.73;6.85;;;;;;;;;;5062247;28;20059;-73
2024/03/21 09:19:51;;;;;;;15.63;6.40;;;;;;;;;;5050772;28;20021;-73
2024/03/21 09:22:18;;;;;;;11.18;6.40;;;16.00;99.90;;;;;;5060821;28;20034;-72
2024/03/21 09:24:46;;;;;;;16.20;6.32;;;16.10;99.90;;;;;;5062883;28;20025;-72
2024/03/21 09:27:13;;;;;;;9.10;5.07;;;16.20;99.90;;;;;;5065247;28;20488;-73
2024/03/21 09:29:38;;;;;;;7.97;4.85;;;16.60;99.90;;;;;;5069936;28;20488;-73
2024/03/21 09:32:04;;;;;;;7.97;4.90;;;16.90;99.90;;;;;;5053601;28;20055;-74
2024/03/21 09:34:30;;;;;;;9.48;4.30;;;17.10;99.90;;;;;;5062839;28;20033;-74
2024/03/21 09:36:57;;;;;;;6.40;3.75;;;17.30;99.90;;;;;;5050524;28;20018;-74
2024/03/21 09:39:23;;;;;;;8.10;4.10;;;17.50;99.90;;;;;;5054547;28;20056;-74
2024/03/21 09:41:53;;;;;;;5.70;3.55;;;17.60;99.90;;;;;;5055915;28;20043;-73
2024/03/21 09:44:20;;;;;;;5.72;3.65;;;17.60;99.90;;;;;;5061610;28;20111;-73
2024/03/21 09:46:47;;;;;;;9.73;5.00;;;17.60;99.90;;;;;;5053751;28;20646;-73
2024/03/21 09:49:14;;;;;;;12.05;4.85;;;17.70;99.90;;;;;;5051203;28;20033;-73
2024/03/21 09:51:44;;;;;;;8.05;5.00;;;17.60;99.90;;;;;;5059653;28;20024;-74
2024/03/21 09:54:12;;;;;;;9.90;4.55;;;17.60;99.90;;;;;;5059406;28;20035;-73
2024/03/21 09:56:38;;;;;;;6.97;3.80;;;17.50;99.90;;;;;;5055060;28;20108;-74
2024/03/21 09:59:13;;;;;;;6.90;3.95;;;17.40;99.90;;;;;;5064576;28;20016;-74
2024/03/21 10:01:39;;;;;;;7.05;4.50;;;17.50;99.90;;;;;;5063880;28;20032;-75
2024/03/21 10:04:07;;;;;;;6.22;4.03;;;17.40;99.90;;;;;;5062642;28;20494;-74
2024/03/21 10:06:43;;;;;;;4.88;3.72;;;17.30;99.90;;;;;;5045016;28;20067;-74
2024/03/21 10:09:09;;;;;;;5.00;4.03;;;17.30;99.90;;;;;;5068135;28;20131;-74
2024/03/21 10:11:35;;;;;;;9.60;4.80;;;17.10;99.90;;;;;;5010784;28;20592;-74
2024/03/21 10:14:02;;;;;;;5.32;4.10;;;16.90;99.90;;;;;;5009534;28;20041;-74
2024/03/21 10:16:29;;;;;;;6.95;4.35;;;16.80;99.90;;;;;;4992872;28;20034;-74
2024/03/21 10:18:55;;;;;;;8.30;4.82;;;16.80;99.90;;;;;;4970769;28;20485;-74
2024/03/21 10:21:24;;;;;;;11.05;6.32;;;16.70;99.90;;;;;;4998316;28;20041;-74
2024/03/21 10:24:03;;;;;;;6.85;4.70;;;16.80;99.90;;;;;;4980874;28;20026;-74
2024/03/21 10:26:32;;;;;;;8.18;5.25;;;16.90;99.90;;;;;;4994433;28;20498;-75
2024/03/21 10:29:05;;;;;;;12.15;5.35;;;17.00;99.90;;;;;;5010194;28;20121;-74
2024/03/21 10:31:32;;;;;;;9.80;5.57;;;17.20;99.90;;;;;;5002308;28;20407;-74
2024/03/21 10:33:57;;;;;;;10.10;5.40;;;17.30;99.90;;;;;;5007925;28;20047;-74
2024/03/21 10:36:24;;;;;;;13.45;7.70;;;17.40;99.90;;;;;;5009197;28;20038;-74
2024/03/21 10:38:50;;;;;;;17.65;10.45;;;17.50;99.90;;;;;;5003039;28;20034;-88
2024/03/21 10:41:39;;;;;;;18.15;10.18;;;17.60;99.90;;;;;;5007651;28;20041;-85
2024/03/21 10:44:12;;;;;;;15.20;8.80;;;17.50;99.90;;;;;;4960264;28;20471;-75
2024/03/21 10:46:38;;;;;;;15.60;9.77;;;17.50;99.90;;;;;;4935305;29;20039;-75
2024/03/21 10:49:05;;;;;;;12.88;9.20;;;17.70;99.90;;;;;;4950701;28;20095;-76
2024/03/21 10:51:30;;;;;;;14.75;8.23;;;17.80;99.90;;;;;;4950160;28;20031;-75
2024/03/21 10:53:57;;;;;;;14.48;7.65;;;17.80;99.90;;;;;;4948187;29;20068;-76
2024/03/21 10:56:36;;;;;;;14.63;8.95;;;17.90;99.90;;;;;;4951349;29;20110;-75
2024/03/21 10:59:02;;;;;;;16.80;9.82;;;18.00;99.90;;;;;;4950615;29;20562;-75
2024/03/21 11:01:38;;;;;;;14.27;8.23;;;18.10;99.90;;;;;;4944833;28;20552;-80
2024/03/21 11:04:15;;;;;;;11.13;7.32;;;18.00;99.90;;;;;;4942988;29;20507;-80
2024/03/21 11:06:46;;;;;;;11.63;7.60;;;17.70;99.90;;;;;;4951990;28;20046;-79
2024/03/21 11:09:14;;;;;;;11.43;6.68;;;17.40;99.90;;;;;;4919219;29;20067;-77
2024/03/21 11:11:41;;;;;;;12.48;7.43;;;17.40;99.90;;;;;;4952522;28;20054;-79
2024/03/21 11:14:09;;;;;;;13.60;7.22;;;17.60;99.90;;;;;;4951312;29;20596;-79
2024/03/21 11:16:40;;;;;;;13.70;6.55;;;17.70;99.90;;;;;;4935480;29;20123;-79
2024/03/21 11:19:06;;;;;;;10.88;6.53;;;17.80;99.90;;;;;;4951263;29;20031;-79
2024/03/21 11:21:34;;;;;;;12.85;6.72;;;18.00;99.90;;;;;;5008972;28;20035;-77
2024/03/21 11:24:01;;;;;;;12.13;6.95;;;18.20;99.90;;;;;;5071748;28;20029;-80
2024/03/21 11:26:33;;;;;;;12.13;6.47;;;18.50;99.90;;;;;;5066396;28;20021;-77
2024/03/21 11:28:59;;;;;;;11.20;6.38;;;18.60;99.90;;;;;;5064029;28;20029;-76
2024/03/21 11:31:28;;;;;;;10.00;5.47;;;18.60;99.90;;;;;;5050965;28;20350;-82
2024/03/21 11:33:54;;;;;;;9.20;5.70;;;18.80;99.90;;;;;;5034812;28;20093;-75
2024/03/21 11:36:23;;;;;;;12.18;6.13;;;19.10;99.90;;;;;;5055297;28;20025;-86
2024/03/21 11:38:50;;;;;;;14.32;7.13;;;19.30;99.90;;;;;;5017071;28;20025;-83
2024/03/21 11:41:25;;;;;;;12.00;7.82;;;19.50;99.90;;;;;;5032153;28;20048;-80
2024/03/21 11:43:57;;;;;;;12.63;8.30;;;19.60;99.90;;;;;;5056878;28;20073;-81
2024/03/21 11:46:24;;;;;;;10.93;7.18;;;19.90;99.90;;;;;;5056805;28;20052;-82
2024/03/21 11:49:22;;;;;;;12.27;9.13;;;20.00;99.90;;;;;;5060821;28;20029;-79
2024/03/21 11:51:51;;;;;;;16.02;9.18;;;19.90;99.90;;;;;;4999608;28;20069;-80
2024/03/21 11:54:16;;;;;;;13.82;9.52;;;19.90;99.90;;;;;;4995568;28;20046;-80
2024/03/21 11:56:42;;;;;;;14.25;8.77;;;19.50;99.90;;;;;;4989402;28;20037;-79
2024/03/21 11:59:08;;;;;;;14.93;8.90;;;19.60;99.90;;;;;;4988884;28;20030;-78
2024/03/21 12:01:34;;;;;;;13.05;9.85;;;19.50;99.90;;;;;;4988937;28;20030;-79
2024/03/21 12:04:00;;;;;;;11.18;8.73;;;19.30;99.90;;;;;;4988952;28;20034;-80
2024/03/21 12:06:27;;;;;;;18.70;9.65;;;19.20;99.90;;;;;;4989105;28;20046;-80
2024/03/21 12:08:55;;;;;;;12.95;7.88;;;19.60;99.90;;;;;;4972722;28;20455;-79
2024/03/21 12:11:22;;;;;;;15.40;8.90;;;19.90;99.90;;;;;;4972896;28;20026;-82
2024/03/21 12:13:50;;;;;;;11.20;8.80;;;19.60;99.90;;;;;;4989865;28;20033;-80
2024/03/21 12:16:17;;;;;;;9.60;7.88;;;19.40;99.90;;;;;;4988722;28;20311;-81
2024/03/21 12:18:44;;;;;;;13.82;9.07;;;19.40;99.90;;;;;;4989630;28;20023;-83
2024/03/21 12:21:19;;;;;;;16.35;9.98;;;19.40;99.90;;;;;;4972447;28;20044;-79
2024/03/21 12:23:46;;;;;;;13.63;9.02;;;19.30;99.90;;;;;;4987290;28;20092;-83
2024/03/21 12:26:14;;;;;;;15.90;10.88;;;19.10;99.90;;;;;;4989871;28;20045;-82
2024/03/21 12:28:40;;;;;;;13.05;9.40;;;19.10;99.90;;;;;;5058833;28;20025;-83
2024/03/21 12:31:13;;;;;;;14.93;10.30;;;19.30;99.90;;;;;;5060468;28;20048;-83
2024/03/21 12:33:39;;;;;;;16.50;10.40;;;19.40;99.90;;;;;;5044996;28;20060;-83
2024/03/21 12:36:05;;;;;;;17.00;10.15;;;19.50;99.90;;;;;;5078866;28;20396;-81
2024/03/21 12:38:31;;;;;;;16.00;9.70;;;19.20;99.90;;;;;;5075984;28;20028;-81
2024/03/21 12:41:00;;;;;;;12.10;8.48;;;18.90;99.90;;;;;;5082646;28;20024;-81
2024/03/21 12:43:27;;;;;;;11.90;8.82;;;18.80;99.90;;;;;;5084208;28;20020;-81
2024/03/21 12:45:55;;;;;;;12.15;9.63;;;19.10;99.90;;;;;;5080625;28;20031;-81
2024/03/21 12:48:33;;;;;;;9.98;7.50;;;19.70;99.70;;;;;;5058631;28;20024;-82
2024/03/21 12:50:59;;;;;;;11.07;8.07;;;19.90;99.50;;;;;;5073328;28;20108;-82
2024/03/21 12:53:24;;;;;;;13.40;8.65;;;19.90;98.90;;;;;;5077637;28;20036;-83
2024/03/21 12:55:50;;;;;;;13.38;9.13;;;19.90;98.60;;;;;;5075947;28;20021;-83
2024/03/21 12:58:17;;;;;;;15.27;9.65;;;19.60;98.90;;;;;;5070093;28;20432;-82
2024/03/21 13:00:44;;;;;;;14.13;9.77;;;19.50;99.30;;;;;;5069338;28;20039;-83
2024/03/21 13:03:09;;;;;;;14.57;10.20;;;19.10;99.90;;;;;;5068203;28;20074;-82
2024/03/21 13:05:35;;;;;;;13.18;9.77;;;18.80;99.90;;;;;;5069784;28;20024;-83
2024/03/21 13:08:02;;;;;;;14.88;8.70;;;18.60;99.90;;;;;;5069821;28;20023;-82
2024/03/21 13:10:28;;;;;;;14.02;10.20;;;18.40;99.90;;;;;;5051474;28;20028;-82
2024/03/21 13:12:54;;;;;;;9.82;8.82;;;18.30;99.90;;;;;;5069838;28;20029;-82
2024/03/21 13:15:20;;;;;;;13.45;9.80;;;18.00;99.90;;;;;;5068744;28;20094;-81
2024/03/21 13:17:45;;;;;;;12.93;8.13;;;18.10;99.90;;;;;;5069298;28;20032;-83
2024/03/21 13:20:14;;;;;;;12.82;8.32;;;18.10;99.90;;;;;;5069174;28;20035;-82
2024/03/21 13:22:40;;;;;;;10.25;8.05;;;18.10;99.90;;;;;;5069707;28;20083;-82
2024/03/21 13:25:07;;;;;;;12.50;6.97;;;18.20;99.90;;;;;;5068990;28;20484;-82
2024/03/21 13:27:34;;;;;;;8.48;6.45;;;18.30;99.90;;;;;;5051511;28;20060;-83
2024/03/21 13:30:00;;;;;;;10.75;6.72;;;18.30;99.90;;;;;;5069112;28;20024;-82
2024/03/21 13:32:26;;;;;;;10.32;6.63;;;18.30;99.90;;;;;;5068411;28;20440;-82
2024/03/21 13:34:53;;;;;;;11.25;5.95;;;18.50;99.90;;;;;;5064077;28;20162;-81
2024/03/21 13:37:19;;;;;;;11.48;5.72;;;18.80;99.90;;;;;;5061519;28;20091;-83
2024/03/21 13:39:45;;;;;;;9.55;5.15;;;19.30;99.30;;;;;;5062374;28;20024;-81
2024/03/21 13:42:12;;;;;;;8.88;5.35;;;19.80;99.30;;;;;;5065137;28;20033;-83
2024/03/21 13:44:38;;;;;;;9.23;6.13;;;20.50;98.40;;;;;;5073802;28;20036;-85
2024/03/21 13:47:04;;;;;;;10.88;5.97;;;21.20;97.20;;;;;;5062277;28;20400;-84
2024/03/21 13:49:31;;;;;;;13.13;5.60;;;21.20;96.80;;;;;;5064610;28;20029;-84
2024/03/21 13:52:00;;;;;;;8.40;6.20;;;21.00;97.10;;;;;;5069374;28;20032;-85
2024/03/21 13:54:26;;;;;;;16.10;8.63;;;20.60;96.80;;;;;;5066979;28;20055;-85
2024/03/21 13:56:51;;;;;;;35.90;26.25;;;20.10;97.80;;;;;;5069570;28;20021;-84
2024/03/21 13:59:17;;;;;;;35.78;27.17;;;19.00;99.30;;;;;;5048241;28;20033;-85
2024/03/21 14:01:44;;;;;;;39.08;27.23;;;18.60;99.90;;;;;;5064704;28;20359;-78